sensor_id;sensor_type;location;lat;lon;timestamp;temperature;humidity
44894;DHT22;30625;52.206;21.030;2022-11-20T00:01:16;-2.00;99.90
44894;DHT22;30625;52.206;21.030;2022-11-20T00:03:42;-1.30;99.90
44894;DHT22;30625;52.206;21.030;2022-11-20T00:06:10;-3.50;99.90
44894;DHT22;30625;52.206;21.030;2022-11-20T00:13:45;-3.10;99.90
44894;DHT22;30625;52.206;21.030;2022-11-20T00:18:43;-3.10;99.90
44894;DHT22;30625;52.206;21.030;2022-11-20T00:21:17;-2.20;99.90
44894;DHT22;30625;52.206;21.030;2022-11-20T00:26:14;-3.20;99.90
44894;DHT22;30625;52.206;21.030;2022-11-20T00:28:41;-3.30;99.90
44894;DHT22;30625;52.206;21.030;2022-11-20T00:31:09;-3.20;99.90
44894;DHT22;30625;52.206;21.030;2022-11-20T00:36:13;-3.30;99.90
44894;DHT22;30625;52.206;21.030;2022-11-20T00:41:06;-3.30;99.90
44894;DHT22;30625;52.206;21.030;2022-11-20T00:45:59;-3.30;99.90
44894;DHT22;30625;52.206;21.030;2022-11-20T00:55:52;-3.10;99.90
44894;DHT22;30625;52.206;21.030;2022-11-20T01:01:00;-3.00;99.90
44894;DHT22;30625;52.206;21.030;2022-11-20T01:03:26;-3.50;99.90
44894;DHT22;30625;52.206;21.030;2022-11-20T01:11:04;-3.10;99.90
44894;DHT22;30625;52.206;21.030;2022-11-20T01:13:35;-2.90;99.90
44894;DHT22;30625;52.206;21.030;2022-11-20T01:21:32;-3.00;99.90
44894;DHT22;30625;52.206;21.030;2022-11-20T01:31:37;-3.20;99.90
44894;DHT22;30625;52.206;21.030;2022-11-20T01:34:05;-3.10;99.90
44894;DHT22;30625;52.206;21.030;2022-11-20T01:36:33;-1.10;99.90
44894;DHT22;30625;52.206;21.030;2022-11-20T01:39:05;-3.00;99.90
44894;DHT22;30625;52.206;21.030;2022-11-20T01:41:32;-4.60;99.90
44894;DHT22;30625;52.206;21.030;2022-11-20T01:44:20;-0.70;99.90
44894;DHT22;30625;52.206;21.030;2022-11-20T01:49:27;-3.10;99.90
44894;DHT22;30625;52.206;21.030;2022-11-20T01:52:01;-3.10;99.90
44894;DHT22;30625;52.206;21.030;2022-11-20T01:54:39;-2.70;99.90
44894;DHT22;30625;52.206;21.030;2022-11-20T01:57:09;-1.50;99.90
44894;DHT22;30625;52.206;21.030;2022-11-20T01:59:40;-3.30;99.90
44894;DHT22;30625;52.206;21.030;2022-11-20T02:02:07;-2.10;99.90
44894;DHT22;30625;52.206;21.030;2022-11-20T02:04:33;-1.20;99.90
44894;DHT22;30625;52.206;21.030;2022-11-20T02:07:04;-1.70;99.90
44894;DHT22;30625;52.206;21.030;2022-11-20T02:09:30;-2.10;99.90
44894;DHT22;30625;52.206;21.030;2022-11-20T02:11:56;-3.40;99.90
44894;DHT22;30625;52.206;21.030;2022-11-20T02:14:23;-0.90;99.90
44894;DHT22;30625;52.206;21.030;2022-11-20T02:16:49;-1.80;99.90
44894;DHT22;30625;52.206;21.030;2022-11-20T02:22:06;-3.20;99.90
44894;DHT22;30625;52.206;21.030;2022-11-20T02:24:33;-2.40;99.90
44894;DHT22;30625;52.206;21.030;2022-11-20T02:27:07;-0.90;99.90
44894;DHT22;30625;52.206;21.030;2022-11-20T02:29:46;-3.30;99.90
44894;DHT22;30625;52.206;21.030;2022-11-20T02:32:28;-4.50;99.90
44894;DHT22;30625;52.206;21.030;2022-11-20T02:34:54;-1.30;99.90
44894;DHT22;30625;52.206;21.030;2022-11-20T02:37:21;-2.60;99.90
44894;DHT22;30625;52.206;21.030;2022-11-20T02:39:49;-0.50;99.90
44894;DHT22;30625;52.206;21.030;2022-11-20T02:47:16;-3.00;99.90
44894;DHT22;30625;52.206;21.030;2022-11-20T02:49:42;-2.80;99.90
44894;DHT22;30625;52.206;21.030;2022-11-20T02:52:08;-4.80;99.90
44894;DHT22;30625;52.206;21.030;2022-11-20T02:54:34;-2.90;99.90
44894;DHT22;30625;52.206;21.030;2022-11-20T02:57:00;-0.80;99.90
44894;DHT22;30625;52.206;21.030;2022-11-20T02:59:26;-3.60;99.90
44894;DHT22;30625;52.206;21.030;2022-11-20T03:01:52;-0.80;99.90
44894;DHT22;30625;52.206;21.030;2022-11-20T03:04:18;-0.80;99.90
44894;DHT22;30625;52.206;21.030;2022-11-20T03:06:43;-2.90;99.90
44894;DHT22;30625;52.206;21.030;2022-11-20T03:09:09;-4.50;99.90
44894;DHT22;30625;52.206;21.030;2022-11-20T03:11:35;-3.20;99.90
44894;DHT22;30625;52.206;21.030;2022-11-20T03:14:05;-1.20;99.90
44894;DHT22;30625;52.206;21.030;2022-11-20T03:23:50;-3.00;99.90
44894;DHT22;30625;52.206;21.030;2022-11-20T03:26:21;-2.70;99.90
44894;DHT22;30625;52.206;21.030;2022-11-20T03:29:00;-3.80;99.90
44894;DHT22;30625;52.206;21.030;2022-11-20T03:31:28;-4.60;99.90
44894;DHT22;30625;52.206;21.030;2022-11-20T03:33:56;-3.10;99.90
44894;DHT22;30625;52.206;21.030;2022-11-20T03:41:19;-3.20;99.90
44894;DHT22;30625;52.206;21.030;2022-11-20T03:48:57;-3.20;99.90
44894;DHT22;30625;52.206;21.030;2022-11-20T03:51:31;-3.30;99.90
44894;DHT22;30625;52.206;21.030;2022-11-20T03:54:02;-3.50;99.90
44894;DHT22;30625;52.206;21.030;2022-11-20T04:01:52;-3.50;99.90
44894;DHT22;30625;52.206;21.030;2022-11-20T04:09:10;-3.50;99.90
44894;DHT22;30625;52.206;21.030;2022-11-20T04:11:40;-3.40;99.90
44894;DHT22;30625;52.206;21.030;2022-11-20T04:14:13;-0.60;99.90
44894;DHT22;30625;52.206;21.030;2022-11-20T04:16:39;-3.30;99.90
44894;DHT22;30625;52.206;21.030;2022-11-20T04:19:09;-1.40;99.90
44894;DHT22;30625;52.206;21.030;2022-11-20T04:24:03;-3.60;99.90
44894;DHT22;30625;52.206;21.030;2022-11-20T04:26:30;-3.60;99.90
44894;DHT22;30625;52.206;21.030;2022-11-20T04:28:57;-3.40;99.90
44894;DHT22;30625;52.206;21.030;2022-11-20T04:34:05;-3.60;99.90
44894;DHT22;30625;52.206;21.030;2022-11-20T04:36:31;-3.90;99.90
44894;DHT22;30625;52.206;21.030;2022-11-20T04:39:01;-3.80;99.90
44894;DHT22;30625;52.206;21.030;2022-11-20T04:49:14;-3.80;99.90
44894;DHT22;30625;52.206;21.030;2022-11-20T04:56:37;-3.90;99.90
44894;DHT22;30625;52.206;21.030;2022-11-20T05:04:05;-3.90;99.90
44894;DHT22;30625;52.206;21.030;2022-11-20T05:14:03;-3.90;99.90
44894;DHT22;30625;52.206;21.030;2022-11-20T05:18:57;-3.90;99.90
44894;DHT22;30625;52.206;21.030;2022-11-20T05:31:21;-3.80;99.90
44894;DHT22;30625;52.206;21.030;2022-11-20T05:36:26;-3.90;99.90
44894;DHT22;30625;52.206;21.030;2022-11-20T05:41:20;-3.90;99.90
44894;DHT22;30625;52.206;21.030;2022-11-20T05:43:48;-3.90;99.90
44894;DHT22;30625;52.206;21.030;2022-11-20T05:46:19;-3.90;99.90
44894;DHT22;30625;52.206;21.030;2022-11-20T05:48:45;-3.90;99.90
44894;DHT22;30625;52.206;21.030;2022-11-20T05:51:17;-4.00;99.90
44894;DHT22;30625;52.206;21.030;2022-11-20T05:56:11;-4.10;99.90
44894;DHT22;30625;52.206;21.030;2022-11-20T06:01:11;-4.00;99.90
44894;DHT22;30625;52.206;21.030;2022-11-20T06:06:03;-4.00;99.90
44894;DHT22;30625;52.206;21.030;2022-11-20T06:10:55;-4.10;99.90
44894;DHT22;30625;52.206;21.030;2022-11-20T06:15:50;-4.10;99.90
44894;DHT22;30625;52.206;21.030;2022-11-20T06:25:38;-4.10;99.90
44894;DHT22;30625;52.206;21.030;2022-11-20T06:32:56;-4.00;99.90
44894;DHT22;30625;52.206;21.030;2022-11-20T06:42:40;-4.00;99.90
44894;DHT22;30625;52.206;21.030;2022-11-20T06:45:07;-1.50;99.90
44894;DHT22;30625;52.206;21.030;2022-11-20T06:47:33;-4.10;99.90
44894;DHT22;30625;52.206;21.030;2022-11-20T06:54:51;-4.00;99.90
44894;DHT22;30625;52.206;21.030;2022-11-20T06:59:43;-4.10;99.90
44894;DHT22;30625;52.206;21.030;2022-11-20T07:02:10;-3.90;99.90
44894;DHT22;30625;52.206;21.030;2022-11-20T07:04:40;-4.10;99.90
44894;DHT22;30625;52.206;21.030;2022-11-20T07:16:51;-4.00;99.90
44894;DHT22;30625;52.206;21.030;2022-11-20T07:19:18;-2.50;99.90
44894;DHT22;30625;52.206;21.030;2022-11-20T07:26:53;-3.70;99.90
44894;DHT22;30625;52.206;21.030;2022-11-20T07:29:19;-2.80;99.90
44894;DHT22;30625;52.206;21.030;2022-11-20T07:31:45;-1.70;99.90
44894;DHT22;30625;52.206;21.030;2022-11-20T07:36:46;-3.40;99.90
44894;DHT22;30625;52.206;21.030;2022-11-20T07:39:12;-3.50;99.90
44894;DHT22;30625;52.206;21.030;2022-11-20T07:41:38;-3.50;99.90
44894;DHT22;30625;52.206;21.030;2022-11-20T07:44:03;-1.80;99.90
44894;DHT22;30625;52.206;21.030;2022-11-20T07:46:29;-3.20;99.90
44894;DHT22;30625;52.206;21.030;2022-11-20T07:48:55;-3.10;99.90
44894;DHT22;30625;52.206;21.030;2022-11-20T07:51:20;-2.10;99.90
44894;DHT22;30625;52.206;21.030;2022-11-20T07:56:14;-3.00;99.90
44894;DHT22;30625;52.206;21.030;2022-11-20T07:58:40;-1.70;99.90
44894;DHT22;30625;52.206;21.030;2022-11-20T08:01:06;-2.30;99.90
44894;DHT22;30625;52.206;21.030;2022-11-20T08:03:35;-1.30;99.90
44894;DHT22;30625;52.206;21.030;2022-11-20T08:06:03;-2.60;99.90
44894;DHT22;30625;52.206;21.030;2022-11-20T08:08:29;-2.50;99.90
44894;DHT22;30625;52.206;21.030;2022-11-20T08:10:58;-1.80;99.90
44894;DHT22;30625;52.206;21.030;2022-11-20T08:13:47;-2.10;99.90
44894;DHT22;30625;52.206;21.030;2022-11-20T08:16:31;-2.40;99.90
44894;DHT22;30625;52.206;21.030;2022-11-20T08:18:57;-1.50;99.90
44894;DHT22;30625;52.206;21.030;2022-11-20T08:21:23;-2.30;99.90
44894;DHT22;30625;52.206;21.030;2022-11-20T08:23:49;-2.30;99.90
44894;DHT22;30625;52.206;21.030;2022-11-20T08:26:14;-2.30;99.90
44894;DHT22;30625;52.206;21.030;2022-11-20T08:28:40;-2.30;99.90
44894;DHT22;30625;52.206;21.030;2022-11-20T08:31:06;-1.20;99.90
44894;DHT22;30625;52.206;21.030;2022-11-20T08:33:31;-2.00;99.90
44894;DHT22;30625;52.206;21.030;2022-11-20T08:36:02;-2.10;99.90
44894;DHT22;30625;52.206;21.030;2022-11-20T08:38:29;-2.00;99.90
44894;DHT22;30625;52.206;21.030;2022-11-20T08:40:58;-2.00;99.90
44894;DHT22;30625;52.206;21.030;2022-11-20T08:43:43;-1.90;99.90
44894;DHT22;30625;52.206;21.030;2022-11-20T08:46:08;-1.50;99.90
44894;DHT22;30625;52.206;21.030;2022-11-20T08:48:34;-1.60;99.90
44894;DHT22;30625;52.206;21.030;2022-11-20T08:51:00;-1.50;99.90
44894;DHT22;30625;52.206;21.030;2022-11-20T08:53:26;-1.40;99.90
44894;DHT22;30625;52.206;21.030;2022-11-20T08:55:52;-1.40;99.90
44894;DHT22;30625;52.206;21.030;2022-11-20T08:58:17;-0.20;99.90
44894;DHT22;30625;52.206;21.030;2022-11-20T09:00:43;-1.30;99.90
44894;DHT22;30625;52.206;21.030;2022-11-20T09:03:09;-1.30;99.90
44894;DHT22;30625;52.206;21.030;2022-11-20T09:05:34;-1.30;99.90
44894;DHT22;30625;52.206;21.030;2022-11-20T09:08:00;-1.20;99.90
44894;DHT22;30625;52.206;21.030;2022-11-20T09:10:26;-1.30;99.90
44894;DHT22;30625;52.206;21.030;2022-11-20T09:12:53;-1.10;99.90
44894;DHT22;30625;52.206;21.030;2022-11-20T09:15:20;-1.00;99.90
44894;DHT22;30625;52.206;21.030;2022-11-20T09:18:00;-1.00;99.90
44894;DHT22;30625;52.206;21.030;2022-11-20T09:20:27;-0.90;99.90
44894;DHT22;30625;52.206;21.030;2022-11-20T09:22:54;-0.90;99.90
44894;DHT22;30625;52.206;21.030;2022-11-20T09:25:20;-1.00;99.90
44894;DHT22;30625;52.206;21.030;2022-11-20T09:27:46;0.20;99.90
44894;DHT22;30625;52.206;21.030;2022-11-20T09:30:13;-0.90;99.90
44894;DHT22;30625;52.206;21.030;2022-11-20T09:32:40;-0.60;99.90
44894;DHT22;30625;52.206;21.030;2022-11-20T09:35:06;-0.20;99.90
44894;DHT22;30625;52.206;21.030;2022-11-20T09:37:31;0.40;99.60
44894;DHT22;30625;52.206;21.030;2022-11-20T09:39:57;1.10;99.50
44894;DHT22;30625;52.206;21.030;2022-11-20T09:42:32;1.40;97.20
44894;DHT22;30625;52.206;21.030;2022-11-20T09:45:30;1.80;96.00
44894;DHT22;30625;52.206;21.030;2022-11-20T09:55:55;1.40;96.60
44894;DHT22;30625;52.206;21.030;2022-11-20T09:58:40;1.30;96.70
44894;DHT22;30625;52.206;21.030;2022-11-20T10:01:22;1.60;97.10
44894;DHT22;30625;52.206;21.030;2022-11-20T10:06:33;1.20;97.10
44894;DHT22;30625;52.206;21.030;2022-11-20T10:09:18;1.10;97.50
44894;DHT22;30625;52.206;21.030;2022-11-20T10:18:01;1.10;97.60
44894;DHT22;30625;52.206;21.030;2022-11-20T10:20:34;1.00;97.60
44894;DHT22;30625;52.206;21.030;2022-11-20T10:23:17;0.80;98.40
44894;DHT22;30625;52.206;21.030;2022-11-20T10:25:54;0.70;98.20
44894;DHT22;30625;52.206;21.030;2022-11-20T10:31:35;0.60;98.60
44894;DHT22;30625;52.206;21.030;2022-11-20T10:37:15;0.70;99.50
44894;DHT22;30625;52.206;21.030;2022-11-20T10:42:42;0.80;99.30
44894;DHT22;30625;52.206;21.030;2022-11-20T10:45:20;0.90;98.80
44894;DHT22;30625;52.206;21.030;2022-11-20T10:47:47;0.90;98.90
44894;DHT22;30625;52.206;21.030;2022-11-20T10:50:18;2.10;99.20
44894;DHT22;30625;52.206;21.030;2022-11-20T10:53:12;0.90;99.00
44894;DHT22;30625;52.206;21.030;2022-11-20T10:56:27;0.80;98.90
44894;DHT22;30625;52.206;21.030;2022-11-20T11:01:26;0.90;99.40
44894;DHT22;30625;52.206;21.030;2022-11-20T11:03:53;0.90;99.50
44894;DHT22;30625;52.206;21.030;2022-11-20T11:06:42;1.10;99.80
44894;DHT22;30625;52.206;21.030;2022-11-20T11:09:16;1.00;99.90
44894;DHT22;30625;52.206;21.030;2022-11-20T11:11:44;2.00;99.90
44894;DHT22;30625;52.206;21.030;2022-11-20T11:14:15;1.50;99.90
44894;DHT22;30625;52.206;21.030;2022-11-20T11:16:55;1.10;99.50
44894;DHT22;30625;52.206;21.030;2022-11-20T11:19:21;1.20;99.40
44894;DHT22;30625;52.206;21.030;2022-11-20T11:21:50;1.30;99.60
44894;DHT22;30625;52.206;21.030;2022-11-20T11:24:24;2.50;99.70
44894;DHT22;30625;52.206;21.030;2022-11-20T11:29:25;1.50;98.60
44894;DHT22;30625;52.206;21.030;2022-11-20T11:32:06;1.50;99.10
44894;DHT22;30625;52.206;21.030;2022-11-20T11:34:32;1.50;99.00
44894;DHT22;30625;52.206;21.030;2022-11-20T11:36:58;1.50;98.10
44894;DHT22;30625;52.206;21.030;2022-11-20T11:39:26;1.70;97.80
44894;DHT22;30625;52.206;21.030;2022-11-20T11:41:52;2.80;98.30
44894;DHT22;30625;52.206;21.030;2022-11-20T11:44:23;1.60;97.50
44894;DHT22;30625;52.206;21.030;2022-11-20T11:49:43;3.30;97.90
44894;DHT22;30625;52.206;21.030;2022-11-20T11:52:16;1.60;98.00
44894;DHT22;30625;52.206;21.030;2022-11-20T11:54:52;1.80;97.80
44894;DHT22;30625;52.206;21.030;2022-11-20T12:00:17;1.80;97.40
44894;DHT22;30625;52.206;21.030;2022-11-20T12:05:24;1.80;97.80
44894;DHT22;30625;52.206;21.030;2022-11-20T12:07:59;1.80;97.20
44894;DHT22;30625;52.206;21.030;2022-11-20T12:15:46;2.20;97.20
44894;DHT22;30625;52.206;21.030;2022-11-20T12:18:18;3.10;98.20
44894;DHT22;30625;52.206;21.030;2022-11-20T12:26:54;1.90;99.10
44894;DHT22;30625;52.206;21.030;2022-11-20T12:34:47;1.70;99.20
44894;DHT22;30625;52.206;21.030;2022-11-20T12:39:56;1.70;99.70
44894;DHT22;30625;52.206;21.030;2022-11-20T12:56:18;1.40;99.90
44894;DHT22;30625;52.206;21.030;2022-11-20T13:01:45;1.40;99.90
44894;DHT22;30625;52.206;21.030;2022-11-20T13:07:04;1.30;99.90
44894;DHT22;30625;52.206;21.030;2022-11-20T13:09:31;1.30;99.90
44894;DHT22;30625;52.206;21.030;2022-11-20T13:12:12;1.30;99.90
44894;DHT22;30625;52.206;21.030;2022-11-20T13:17:49;1.10;99.90
44894;DHT22;30625;52.206;21.030;2022-11-20T13:20:18;1.00;99.90
44894;DHT22;30625;52.206;21.030;2022-11-20T13:22:49;1.10;99.90
44894;DHT22;30625;52.206;21.030;2022-11-20T13:25:34;1.10;99.90
44894;DHT22;30625;52.206;21.030;2022-11-20T13:28:25;1.00;99.90
44894;DHT22;30625;52.206;21.030;2022-11-20T13:30:52;1.00;99.90
44894;DHT22;30625;52.206;21.030;2022-11-20T13:33:27;1.10;99.90
44894;DHT22;30625;52.206;21.030;2022-11-20T13:36:21;1.00;99.90
44894;DHT22;30625;52.206;21.030;2022-11-20T13:38:52;1.00;99.90
44894;DHT22;30625;52.206;21.030;2022-11-20T13:41:33;1.00;99.90
44894;DHT22;30625;52.206;21.030;2022-11-20T13:44:27;1.20;99.90
44894;DHT22;30625;52.206;21.030;2022-11-20T13:46:54;1.00;99.90
44894;DHT22;30625;52.206;21.030;2022-11-20T13:49:33;1.00;99.90
44894;DHT22;30625;52.206;21.030;2022-11-20T13:52:38;1.80;99.90
44894;DHT22;30625;52.206;21.030;2022-11-20T13:58:30;0.90;99.90
44894;DHT22;30625;52.206;21.030;2022-11-20T14:01:19;0.80;99.90
44894;DHT22;30625;52.206;21.030;2022-11-20T14:03:46;0.80;99.90
44894;DHT22;30625;52.206;21.030;2022-11-20T14:06:43;0.70;99.90
44894;DHT22;30625;52.206;21.030;2022-11-20T14:09:32;0.60;99.90
44894;DHT22;30625;52.206;21.030;2022-11-20T14:11:57;0.60;99.90
44894;DHT22;30625;52.206;21.030;2022-11-20T14:14:24;0.50;99.90
44894;DHT22;30625;52.206;21.030;2022-11-20T14:16:52;0.60;99.90
44894;DHT22;30625;52.206;21.030;2022-11-20T14:21:53;1.90;99.90
44894;DHT22;30625;52.206;21.030;2022-11-20T14:24:21;0.40;99.90
44894;DHT22;30625;52.206;21.030;2022-11-20T14:26:47;0.30;99.90
44894;DHT22;30625;52.206;21.030;2022-11-20T14:29:18;0.30;99.90
44894;DHT22;30625;52.206;21.030;2022-11-20T14:31:45;0.40;99.90
44894;DHT22;30625;52.206;21.030;2022-11-20T14:34:19;0.20;99.90
44894;DHT22;30625;52.206;21.030;2022-11-20T14:36:45;0.30;99.90
44894;DHT22;30625;52.206;21.030;2022-11-20T14:39:19;0.20;99.90
44894;DHT22;30625;52.206;21.030;2022-11-20T14:41:52;0.30;99.90
44894;DHT22;30625;52.206;21.030;2022-11-20T14:44:21;0.10;99.90
44894;DHT22;30625;52.206;21.030;2022-11-20T14:47:00;0.10;99.90
44894;DHT22;30625;52.206;21.030;2022-11-20T14:49:26;0.10;99.90
44894;DHT22;30625;52.206;21.030;2022-11-20T14:52:11;0.10;99.90
44894;DHT22;30625;52.206;21.030;2022-11-20T14:54:52;0.10;99.90
44894;DHT22;30625;52.206;21.030;2022-11-20T14:57:27;0.20;99.90
44894;DHT22;30625;52.206;21.030;2022-11-20T15:02:42;0.20;99.90
44894;DHT22;30625;52.206;21.030;2022-11-20T15:05:08;0.20;99.90
44894;DHT22;30625;52.206;21.030;2022-11-20T15:07:46;0.10;99.90
44894;DHT22;30625;52.206;21.030;2022-11-20T15:10:18;0.10;99.90
44894;DHT22;30625;52.206;21.030;2022-11-20T15:12:48;0.10;99.90
44894;DHT22;30625;52.206;21.030;2022-11-20T15:15:35;-0.10;99.90
44894;DHT22;30625;52.206;21.030;2022-11-20T15:18:00;-0.10;99.90
44894;DHT22;30625;52.206;21.030;2022-11-20T15:20:30;-0.10;99.90
44894;DHT22;30625;52.206;21.030;2022-11-20T15:22:56;0.80;99.90
44894;DHT22;30625;52.206;21.030;2022-11-20T15:25:22;0.20;99.90
44894;DHT22;30625;52.206;21.030;2022-11-20T15:27:55;-0.20;99.90
44894;DHT22;30625;52.206;21.030;2022-11-20T15:30:21;-0.30;99.90
44894;DHT22;30625;52.206;21.030;2022-11-20T15:32:47;-0.30;99.90
44894;DHT22;30625;52.206;21.030;2022-11-20T15:35:14;-0.20;99.90
44894;DHT22;30625;52.206;21.030;2022-11-20T15:37:41;-0.30;99.90
44894;DHT22;30625;52.206;21.030;2022-11-20T15:40:08;-0.30;99.90
44894;DHT22;30625;52.206;21.030;2022-11-20T15:42:34;-0.40;99.90
44894;DHT22;30625;52.206;21.030;2022-11-20T15:45:00;1.30;99.90
44894;DHT22;30625;52.206;21.030;2022-11-20T15:47:34;0.00;99.90
44894;DHT22;30625;52.206;21.030;2022-11-20T15:50:00;1.00;99.90
44894;DHT22;30625;52.206;21.030;2022-11-20T15:52:26;-0.40;99.90
44894;DHT22;30625;52.206;21.030;2022-11-20T15:54:52;-0.40;99.90
44894;DHT22;30625;52.206;21.030;2022-11-20T15:57:17;-0.40;99.90
44894;DHT22;30625;52.206;21.030;2022-11-20T15:59:43;0.00;99.90
44894;DHT22;30625;52.206;21.030;2022-11-20T16:02:11;-0.60;99.90
44894;DHT22;30625;52.206;21.030;2022-11-20T16:04:37;-0.60;99.90
44894;DHT22;30625;52.206;21.030;2022-11-20T16:07:02;-0.60;99.90
44894;DHT22;30625;52.206;21.030;2022-11-20T16:09:28;-0.40;99.90
44894;DHT22;30625;52.206;21.030;2022-11-20T16:11:54;-0.70;99.90
44894;DHT22;30625;52.206;21.030;2022-11-20T16:14:20;-0.70;99.90
44894;DHT22;30625;52.206;21.030;2022-11-20T16:17:04;-0.70;99.90
44894;DHT22;30625;52.206;21.030;2022-11-20T16:19:30;0.70;99.90
44894;DHT22;30625;52.206;21.030;2022-11-20T16:21:57;-0.80;99.90
44894;DHT22;30625;52.206;21.030;2022-11-20T16:24:25;-0.80;99.90
44894;DHT22;30625;52.206;21.030;2022-11-20T16:26:50;-0.80;99.90
44894;DHT22;30625;52.206;21.030;2022-11-20T16:29:18;-0.90;99.90
44894;DHT22;30625;52.206;21.030;2022-11-20T16:31:43;-0.90;99.90
44894;DHT22;30625;52.206;21.030;2022-11-20T16:34:09;-0.90;99.90
44894;DHT22;30625;52.206;21.030;2022-11-20T16:36:35;-1.00;99.90
44894;DHT22;30625;52.206;21.030;2022-11-20T16:39:02;-2.60;99.90
44894;DHT22;30625;52.206;21.030;2022-11-20T16:41:32;-1.10;99.90
44894;DHT22;30625;52.206;21.030;2022-11-20T16:44:00;-1.00;99.90
44894;DHT22;30625;52.206;21.030;2022-11-20T16:46:28;-0.50;99.90
44894;DHT22;30625;52.206;21.030;2022-11-20T16:48:55;-0.90;99.90
44894;DHT22;30625;52.206;21.030;2022-11-20T16:51:21;-0.80;99.90
44894;DHT22;30625;52.206;21.030;2022-11-20T16:53:48;-0.90;99.90
44894;DHT22;30625;52.206;21.030;2022-11-20T16:56:18;-0.80;99.90
44894;DHT22;30625;52.206;21.030;2022-11-20T16:58:45;-0.80;99.90
44894;DHT22;30625;52.206;21.030;2022-11-20T17:01:14;-0.30;99.90
44894;DHT22;30625;52.206;21.030;2022-11-20T17:03:41;-0.90;99.90
44894;DHT22;30625;52.206;21.030;2022-11-20T17:06:12;-0.90;99.90
44894;DHT22;30625;52.206;21.030;2022-11-20T17:08:38;-0.80;99.90
44894;DHT22;30625;52.206;21.030;2022-11-20T17:11:08;0.60;99.90
44894;DHT22;30625;52.206;21.030;2022-11-20T17:13:35;0.50;99.90
44894;DHT22;30625;52.206;21.030;2022-11-20T17:16:03;-0.50;99.90
44894;DHT22;30625;52.206;21.030;2022-11-20T17:18:29;-0.70;99.90
44894;DHT22;30625;52.206;21.030;2022-11-20T17:20:54;-0.40;99.90
44894;DHT22;30625;52.206;21.030;2022-11-20T17:23:20;-0.20;99.90
44894;DHT22;30625;52.206;21.030;2022-11-20T17:25:46;-0.70;99.90
44894;DHT22;30625;52.206;21.030;2022-11-20T17:28:11;-0.80;99.90
44894;DHT22;30625;52.206;21.030;2022-11-20T17:30:37;-0.90;99.90
44894;DHT22;30625;52.206;21.030;2022-11-20T17:33:03;-0.90;99.90
44894;DHT22;30625;52.206;21.030;2022-11-20T17:35:28;-1.10;99.90
44894;DHT22;30625;52.206;21.030;2022-11-20T17:37:54;-1.10;99.90
44894;DHT22;30625;52.206;21.030;2022-11-20T17:40:20;-1.10;99.90
44894;DHT22;30625;52.206;21.030;2022-11-20T17:42:45;0.00;99.90
44894;DHT22;30625;52.206;21.030;2022-11-20T17:45:11;-1.10;99.90
44894;DHT22;30625;52.206;21.030;2022-11-20T17:47:37;-0.30;99.90
44894;DHT22;30625;52.206;21.030;2022-11-20T17:50:03;-1.20;99.90
44894;DHT22;30625;52.206;21.030;2022-11-20T17:52:28;-1.20;99.90
44894;DHT22;30625;52.206;21.030;2022-11-20T17:54:54;-1.20;99.90
44894;DHT22;30625;52.206;21.030;2022-11-20T17:57:22;-0.30;99.90
44894;DHT22;30625;52.206;21.030;2022-11-20T18:00:07;-1.50;99.90
44894;DHT22;30625;52.206;21.030;2022-11-20T18:02:35;-1.30;99.90
44894;DHT22;30625;52.206;21.030;2022-11-20T18:05:02;-1.20;99.90
44894;DHT22;30625;52.206;21.030;2022-11-20T18:07:28;-1.30;99.90
44894;DHT22;30625;52.206;21.030;2022-11-20T18:09:54;-1.30;99.90
44894;DHT22;30625;52.206;21.030;2022-11-20T18:12:19;-0.40;99.90
44894;DHT22;30625;52.206;21.030;2022-11-20T18:14:47;-0.20;99.90
44894;DHT22;30625;52.206;21.030;2022-11-20T18:17:14;-1.40;99.90
44894;DHT22;30625;52.206;21.030;2022-11-20T18:19:42;-0.80;99.90
44894;DHT22;30625;52.206;21.030;2022-11-20T18:22:09;-1.30;99.90
44894;DHT22;30625;52.206;21.030;2022-11-20T18:24:35;-1.40;99.90
44894;DHT22;30625;52.206;21.030;2022-11-20T18:27:02;-1.30;99.90
44894;DHT22;30625;52.206;21.030;2022-11-20T18:29:29;-1.30;99.90
44894;DHT22;30625;52.206;21.030;2022-11-20T18:31:55;-1.40;99.90
44894;DHT22;30625;52.206;21.030;2022-11-20T18:34:21;-1.30;99.90
44894;DHT22;30625;52.206;21.030;2022-11-20T18:36:47;-1.40;99.90
44894;DHT22;30625;52.206;21.030;2022-11-20T18:39:13;-0.30;99.90
44894;DHT22;30625;52.206;21.030;2022-11-20T18:41:39;-1.40;99.90
44894;DHT22;30625;52.206;21.030;2022-11-20T18:44:28;-1.40;99.90
44894;DHT22;30625;52.206;21.030;2022-11-20T18:47:23;-1.40;99.90
44894;DHT22;30625;52.206;21.030;2022-11-20T18:49:51;-1.50;99.90
44894;DHT22;30625;52.206;21.030;2022-11-20T18:52:28;-1.50;99.90
44894;DHT22;30625;52.206;21.030;2022-11-20T18:54:54;-1.50;99.90
44894;DHT22;30625;52.206;21.030;2022-11-20T18:57:22;-0.40;99.90
44894;DHT22;30625;52.206;21.030;2022-11-20T18:59:48;-1.50;99.90
44894;DHT22;30625;52.206;21.030;2022-11-20T19:02:16;-1.50;99.90
44894;DHT22;30625;52.206;21.030;2022-11-20T19:04:42;-1.50;99.90
44894;DHT22;30625;52.206;21.030;2022-11-20T19:07:09;-0.30;99.90
44894;DHT22;30625;52.206;21.030;2022-11-20T19:09:40;-1.50;99.90
44894;DHT22;30625;52.206;21.030;2022-11-20T19:12:07;-1.50;99.90
44894;DHT22;30625;52.206;21.030;2022-11-20T19:14:33;-1.40;99.90
44894;DHT22;30625;52.206;21.030;2022-11-20T19:16:59;-1.40;99.90
44894;DHT22;30625;52.206;21.030;2022-11-20T19:19:25;-1.40;99.90
44894;DHT22;30625;52.206;21.030;2022-11-20T19:21:51;-1.40;99.90
44894;DHT22;30625;52.206;21.030;2022-11-20T19:24:17;-1.50;99.90
44894;DHT22;30625;52.206;21.030;2022-11-20T19:26:43;-1.40;99.90
44894;DHT22;30625;52.206;21.030;2022-11-20T19:29:13;-0.80;99.90
44894;DHT22;30625;52.206;21.030;2022-11-20T19:31:40;-1.50;99.90
44894;DHT22;30625;52.206;21.030;2022-11-20T19:34:07;-1.50;99.90
44894;DHT22;30625;52.206;21.030;2022-11-20T19:36:35;-1.40;99.90
44894;DHT22;30625;52.206;21.030;2022-11-20T19:39:05;-1.40;99.90
44894;DHT22;30625;52.206;21.030;2022-11-20T19:41:32;-1.20;99.90
44894;DHT22;30625;52.206;21.030;2022-11-20T19:44:00;-1.30;99.90
44894;DHT22;30625;52.206;21.030;2022-11-20T19:46:27;-1.40;99.90
44894;DHT22;30625;52.206;21.030;2022-11-20T19:48:54;-0.70;99.90
44894;DHT22;30625;52.206;21.030;2022-11-20T19:51:20;-1.50;99.90
44894;DHT22;30625;52.206;21.030;2022-11-20T19:53:47;-1.40;99.90
44894;DHT22;30625;52.206;21.030;2022-11-20T19:56:13;-1.60;99.90
44894;DHT22;30625;52.206;21.030;2022-11-20T19:58:39;-1.60;99.90
44894;DHT22;30625;52.206;21.030;2022-11-20T20:01:16;-1.60;99.90
44894;DHT22;30625;52.206;21.030;2022-11-20T20:03:43;-1.60;99.90
44894;DHT22;30625;52.206;21.030;2022-11-20T20:06:13;-1.70;99.90
44894;DHT22;30625;52.206;21.030;2022-11-20T20:08:40;-1.60;99.90
44894;DHT22;30625;52.206;21.030;2022-11-20T20:11:13;-1.20;99.90
44894;DHT22;30625;52.206;21.030;2022-11-20T20:13:40;-1.60;99.90
44894;DHT22;30625;52.206;21.030;2022-11-20T20:16:11;-1.60;99.90